Sunday, March 29, 2015
03:10 UTC
  |  Log In   |  Register Free
Airport Search:

Yellowstone Regional Airport
(KCOD)

Yellowstone Regional Airport Diagram
No Airport Diagram Available

FAA data valid effective March 05, 2015 - April 30, 2015 (unless otherwise noted).

 
 
 
 
 
 
 
 
 
 
 
 
 
 

Current Aviation Weather for Yellowstone Regional Airport (KCOD)

The most recent METAR observation for KCOD was updated at: 1408
METAR Summary (Translated METAR)
KCOD
251355Z 04004KT 10SM OVC011 M01/M02 A3019 RMK AO1
KPOY
251355Z AUTO 31007KT 10SM SCT013 OVC070 M01/M02 A3018 RMK AO2
(23.1 nm NE from KCOD)
KU68
251355Z AUTO 29014KT 10SM OVC065 00/00 A3020 RMK AO2
(34.1 nm NE from KCOD)
TAF Summary (Translated TAF)
KCOD
251321Z 2513/2612 03007KT P6SM BKN002 OVC013 FM251430 03007KT P6SM SCT002 BKN015 FM251600 30006KT P6SM SCT045 BKN080 FM260300 23006KT P6SM SCT080 FM260800 VRB04KT P6SM FEW200 AMD LTD TO CLD VIS AND WIND
  Airport Weather Conditions for KCOD

 Current Weather at COD
54° F
A Few Clouds
West winds at 19.6 mph
COD NOAA Radar

Pressure: 29.95 in
Humidity: 24%
Wind: from the West at 19.6 gusting to 28.8 MPH (17 gusting to 25 KT)
Dew Point: 17.6°F
Visibility: 10.00 mi


Airport Weather Forecast for KCOD

Translated METAR and TAF for KCOD
Translated METAR for KCOD (0309 UTC 29 March 2015)
found at http://aviationweather.gov/adds/metars/
 
METAR text: KCOD 290255Z 32019G31KT 10SM CLR 12/M12 A3003 RMK AO1 52041
Conditions at: KCOD (CODY , WY, US) observed 0255 UTC 29 March 2015
Temperature: 12.0°C (54°F)
Dewpoint: -12.0°C (10°F) [RH = 17%]
Pressure (altimeter): 30.03 inches Hg (1017.0 mb)
Winds: from the NW (320 degrees) at 22 MPH (19 knots; 9.9 m/s)
gusting to 36 MPH (31 knots; 16.1 m/s)
Visibility: 10 or more miles (16+ km)
Ceiling: at least 12,000 feet AGL
Clouds: sky clear below 12,000 feet AGL
Weather: no significant weather observed at this time
Translated TAF for KCOD
Forecast for: KCOD (CODY , WY, US)
TAF Text: KCOD 282323Z 2900/2924 27013G25KT P6SM VCSH SCT040 BKN060
Forecast period: 0000 to 0100 UTC 29 March 2015
Forecast type: FROM: standard forecast or significant change
Winds: from the W (270 degrees) at 15 MPH (13 knots; 6.8 m/s)
gusting to 29 MPH (25 knots; 13.0 m/s)
Visibility: 6 or more miles (10+ km)
Ceiling: 6000 feet AGL
Clouds: scattered clouds at 4000 feet AGL
broken clouds at 6000 feet AGL
Weather: VCSH  (showers in vicinity)
TAF Text: FM290100 28020G28KT P6SM SCT080
Forecast period: 0100 to 0700 UTC 29 March 2015
Forecast type: FROM: standard forecast or significant change
Winds: from the W (280 degrees) at 23 MPH (20 knots; 10.4 m/s)
gusting to 32 MPH (28 knots; 14.6 m/s)
Visibility: 6 or more miles (10+ km)
Clouds: scattered clouds at 8000 feet AGL
Weather: no significant weather forecast for this period
TAF Text: FM290700 24007KT P6SM SKC
Forecast period: 0700 to 1600 UTC 29 March 2015
Forecast type: FROM: standard forecast or significant change
Winds: from the WSW (240 degrees) at 8 MPH (7 knots; 3.6 m/s)
Visibility: 6 or more miles (10+ km)
Clouds: clear skies
Weather: no significant weather forecast for this period
TAF Text: FM291600 16011KT P6SM SKC AMD LTD TO CLD VIS AND WIND
Forecast period: 1600 UTC 29 March 2015 to 0000 UTC 30 March 2015
Forecast type: FROM: standard forecast or significant change
Winds: from the SSE (160 degrees) at 13 MPH (11 knots; 5.7 m/s)
Visibility: 6 or more miles (10+ km)
Clouds: clear skies
Weather: no significant weather forecast for this period

Find All Airport Services Find A Hotel Find A Rental Car Find A Golf Course Find A Restaurant $100 Hamburger



FBO's on the Field
FBO Company Facility Photos Services Transportation Aviation Fuel Prices: Prices include tax
Catering Weather Repair Courtesy Rental Type 100LL JetA JetA+ MOGAS 8087
 
Choice Aviation, LLC

This FBO has not yet been rated
FS:Avfuel
Last Updated: Feb-25
Login to update fuel prices
SS:
Contact Choice Aviation, LLCMore FBO Information
 
Add another FBO Facility Photos Catering Weather Repair Courtesy Rental Type 100LL JetA JetA+ MOGAS 8087
Services Transportation Aviation Fuel Prices: Prices include tax


model-print
model-print
model-print
model-print